< < Back
Terminal Aerodrome Forecast


Current Version              Previous Versions:   1  2  3  4  5  6  7  8  9  

Terminal Aerodrome Forecast

177
FTUS42 KGSP 280500
TAFGSP
TAF
KGSP 280520Z 2806/2906 00000KT P6SM SKC
     FM281400 26003KT P6SM SKC
     FM282100 20005KT P6SM SKC=

Latest METAR

855
SAUS70 KWBC 280700 RRI
MTRGSP
METAR KGSP 280653Z AUTO 00000KT 10SM CLR 19/17 A3002 RMK AO2 SLP153
T01940167


USA.gov is the U.S. government's official web portal to all federal, state and local government web resources and services.